createdAt,value
2023-03-11T00:00:46.973Z,61.70
2023-03-11T00:03:16.226Z,61.69
2023-03-11T00:05:44.738Z,61.70
2023-03-11T00:08:18.086Z,61.71
2023-03-11T00:10:47.110Z,61.60
2023-03-11T00:13:15.480Z,61.66
2023-03-11T00:15:44.371Z,61.67
2023-03-11T00:18:11.370Z,61.60
2023-03-11T00:20:40.797Z,61.55
2023-03-11T00:23:08.732Z,61.54
2023-03-11T00:25:37.243Z,61.60
2023-03-11T00:28:07.314Z,61.59
2023-03-11T00:30:34.336Z,61.34
2023-03-11T00:33:01.317Z,61.19
2023-03-11T00:35:31.278Z,61.05
2023-03-11T00:38:01.273Z,60.93
2023-03-11T00:40:30.764Z,61.01
2023-03-11T00:42:58.421Z,61.36
2023-03-11T00:45:26.587Z,61.62
2023-03-11T00:47:54.546Z,61.65
2023-03-11T00:50:27.106Z,61.71
2023-03-11T00:52:54.235Z,61.61
2023-03-11T00:55:24.430Z,61.77
2023-03-11T00:57:56.050Z,61.71
2023-03-11T01:00:25.174Z,61.78
2023-03-11T01:02:53.738Z,61.74
2023-03-11T01:05:22.943Z,61.69
2023-03-11T01:07:49.857Z,61.79
2023-03-11T01:10:16.939Z,61.88
2023-03-11T01:12:43.963Z,61.88
2023-03-11T01:15:31.436Z,61.89
2023-03-11T01:17:58.260Z,61.92
2023-03-11T01:20:25.057Z,61.87
2023-03-11T01:22:52.103Z,61.90
2023-03-11T01:25:21.323Z,61.61
2023-03-11T01:27:48.062Z,61.79
2023-03-11T01:30:18.306Z,61.95
2023-03-11T01:32:45.401Z,61.94
2023-03-11T01:35:14.054Z,62.01
2023-03-11T01:37:41.072Z,62.14
2023-03-11T01:40:14.241Z,62.14
2023-03-11T01:42:41.064Z,62.08
2023-03-11T01:45:26.393Z,62.15
2023-03-11T01:47:53.141Z,61.92
2023-03-11T01:50:19.955Z,62.08
2023-03-11T01:52:47.785Z,62.05
2023-03-11T01:55:18.565Z,62.09
2023-03-11T01:57:47.714Z,62.13
2023-03-11T02:00:18.024Z,61.99
2023-03-11T02:02:57.277Z,62.03
2023-03-11T02:05:25.245Z,62.12
2023-03-11T02:07:55.005Z,62.19
2023-03-11T02:10:22.270Z,62.08
2023-03-11T02:12:50.825Z,62.08
2023-03-11T02:15:18.038Z,62.06
2023-03-11T02:17:45.166Z,62.11
2023-03-11T02:20:56.173Z,62.11
2023-03-11T02:23:28.846Z,62.03
2023-03-11T02:26:01.651Z,62.00
2023-03-11T02:28:30.231Z,62.14
2023-03-11T02:30:57.415Z,62.14
2023-03-11T02:33:29.945Z,62.15
2023-03-11T02:35:57.693Z,62.22
2023-03-11T02:38:24.640Z,62.19
2023-03-11T02:41:00.960Z,62.24
2023-03-11T02:43:39.791Z,62.27
2023-03-11T02:46:10.259Z,62.14
2023-03-11T02:48:38.026Z,62.07
2023-03-11T02:51:04.970Z,61.97
2023-03-11T02:53:37.857Z,61.94
2023-03-11T02:56:05.040Z,61.88
2023-03-11T02:58:31.943Z,61.74
2023-03-11T03:00:58.774Z,61.67
2023-03-11T03:03:25.758Z,61.51
2023-03-11T03:05:52.540Z,61.30
2023-03-11T03:08:19.320Z,60.90
2023-03-11T03:10:46.022Z,60.77
2023-03-11T03:13:13.004Z,60.63
2023-03-11T03:15:39.788Z,60.68
2023-03-11T03:18:06.536Z,60.54
2023-03-11T03:20:33.292Z,60.49
2023-03-11T03:23:00.613Z,60.04
2023-03-11T03:25:27.449Z,59.71
2023-03-11T03:27:54.183Z,59.71
2023-03-11T03:30:20.967Z,59.55
2023-03-11T03:32:47.765Z,59.26
2023-03-11T03:35:14.598Z,58.85
2023-03-11T03:37:41.369Z,58.90
2023-03-11T03:40:09.374Z,59.10
2023-03-11T03:42:37.048Z,59.04
2023-03-11T03:45:05.934Z,59.01
2023-03-11T03:47:33.941Z,58.90
2023-03-11T03:50:00.704Z,58.30
2023-03-11T03:52:27.437Z,58.24
2023-03-11T03:54:54.226Z,58.42
2023-03-11T03:57:21.151Z,58.25
2023-03-11T03:59:47.983Z,58.05
2023-03-11T04:02:14.778Z,57.42
2023-03-11T04:04:41.552Z,57.04
2023-03-11T04:07:08.412Z,57.20
2023-03-11T04:09:35.189Z,56.80
2023-03-11T04:12:01.967Z,56.77
2023-03-11T04:14:28.673Z,56.53
2023-03-11T04:16:55.504Z,56.71
2023-03-11T04:19:22.363Z,56.86
2023-03-11T04:21:50.722Z,57.21
2023-03-11T04:24:18.892Z,57.32
2023-03-11T04:26:45.646Z,57.36
2023-03-11T04:29:12.506Z,57.49
2023-03-11T04:31:39.277Z,57.50
2023-03-11T04:34:06.071Z,57.71
2023-03-11T04:36:32.830Z,57.73
2023-03-11T04:38:59.544Z,57.34
2023-03-11T04:41:26.319Z,56.82
2023-03-11T04:43:53.065Z,56.45
2023-03-11T04:46:19.963Z,56.19
2023-03-11T04:48:46.854Z,55.30
2023-03-11T04:51:13.664Z,55.11
2023-03-11T04:53:40.424Z,54.69
2023-03-11T04:56:07.305Z,54.38
2023-03-11T04:58:34.223Z,54.40
2023-03-11T05:01:00.931Z,54.26
2023-03-11T05:03:27.813Z,54.39
2023-03-11T05:05:56.816Z,54.27
2023-03-11T05:08:24.591Z,54.51
2023-03-11T05:10:53.042Z,54.58
2023-03-11T05:13:20.952Z,54.68
2023-03-11T05:15:48.573Z,54.65
2023-03-11T05:18:15.760Z,54.93
2023-03-11T05:20:42.525Z,54.86
2023-03-11T05:23:09.444Z,54.74
2023-03-11T05:25:36.331Z,54.87
2023-03-11T05:28:03.779Z,55.01
2023-03-11T05:30:30.726Z,55.14
2023-03-11T05:32:57.678Z,55.32
2023-03-11T05:35:24.525Z,55.41
2023-03-11T05:37:52.591Z,55.42
2023-03-11T05:40:19.409Z,55.22
2023-03-11T05:42:46.261Z,55.18
2023-03-11T05:45:13.100Z,54.43
2023-03-11T05:47:42.238Z,53.23
2023-03-11T05:50:11.627Z,52.53
2023-03-11T05:52:38.458Z,51.86
2023-03-11T05:55:05.748Z,51.80
2023-03-11T05:57:32.538Z,51.43
2023-03-11T05:59:59.293Z,51.55
2023-03-11T06:02:26.176Z,51.09
2023-03-11T06:04:53.489Z,50.42
2023-03-11T06:07:20.317Z,50.17
2023-03-11T06:09:47.100Z,49.43
2023-03-11T06:12:13.944Z,49.03
2023-03-11T06:14:40.700Z,48.83
2023-03-11T06:17:07.546Z,48.58
2023-03-11T06:19:34.362Z,48.86
2023-03-11T06:22:01.108Z,49.08
2023-03-11T06:24:27.854Z,49.27
2023-03-11T06:26:54.641Z,49.60
2023-03-11T06:29:24.433Z,49.63
2023-03-11T06:31:51.546Z,49.81
2023-03-11T06:34:18.477Z,49.91
2023-03-11T06:36:45.235Z,50.00
2023-03-11T06:39:15.576Z,50.41
2023-03-11T06:41:43.042Z,50.41
2023-03-11T06:44:10.795Z,50.53
2023-03-11T06:46:37.683Z,50.74
2023-03-11T06:49:04.486Z,50.83
2023-03-11T06:51:31.329Z,50.83
2023-03-11T06:53:58.402Z,50.80
2023-03-11T06:56:25.325Z,50.79
2023-03-11T06:58:53.708Z,50.69
2023-03-11T07:01:23.211Z,50.90
2023-03-11T07:03:51.581Z,50.86
2023-03-11T07:06:22.836Z,50.79
2023-03-11T07:08:51.573Z,50.41
2023-03-11T07:11:36.528Z,50.14
2023-03-11T07:14:03.315Z,50.20
2023-03-11T07:16:31.038Z,50.21
2023-03-11T07:19:00.958Z,49.82
2023-03-11T07:21:29.149Z,49.95
2023-03-11T07:23:58.830Z,49.42
2023-03-11T07:26:27.405Z,49.56
2023-03-11T07:28:55.366Z,49.59
2023-03-11T07:31:28.186Z,49.05
2023-03-11T07:33:57.227Z,47.77
2023-03-11T07:36:25.244Z,47.85
2023-03-11T07:39:03.135Z,48.01
2023-03-11T07:41:33.006Z,48.59
2023-03-11T07:44:01.168Z,48.41
2023-03-11T07:46:29.051Z,48.33
2023-03-11T07:48:57.020Z,48.11
2023-03-11T07:51:26.221Z,48.32
2023-03-11T07:53:55.742Z,48.10
2023-03-11T07:56:24.616Z,48.17
2023-03-11T07:58:52.582Z,47.72
2023-03-11T08:01:24.703Z,47.88
2023-03-11T08:03:57.108Z,47.58
2023-03-11T08:06:31.314Z,47.42
2023-03-11T08:08:59.554Z,47.30
2023-03-11T08:11:26.464Z,47.30
2023-03-11T08:13:53.888Z,47.21
2023-03-11T08:16:22.304Z,47.21
2023-03-11T08:18:50.462Z,47.11
2023-03-11T08:21:20.302Z,47.13
2023-03-11T08:23:47.001Z,47.12
2023-03-11T08:26:16.866Z,46.92
2023-03-11T08:28:43.815Z,47.08
2023-03-11T08:31:26.731Z,46.88
2023-03-11T08:33:57.488Z,46.79
2023-03-11T08:36:24.323Z,46.71
2023-03-11T08:38:51.108Z,46.72
2023-03-11T08:41:18.617Z,46.67
2023-03-11T08:43:45.797Z,46.22
2023-03-11T08:46:32.701Z,46.00
2023-03-11T08:49:01.384Z,46.02
2023-03-11T08:51:29.486Z,45.56
2023-03-11T08:53:56.472Z,45.82
2023-03-11T08:56:23.370Z,45.52
2023-03-11T08:58:50.979Z,45.17
2023-03-11T09:01:18.010Z,45.35
2023-03-11T09:03:44.844Z,45.23
2023-03-11T09:06:15.513Z,44.87
2023-03-11T09:08:43.414Z,44.77
2023-03-11T09:11:10.663Z,44.04
2023-03-11T09:13:39.450Z,43.81
2023-03-11T09:16:07.505Z,43.95
2023-03-11T09:18:34.307Z,44.09
2023-03-11T09:21:01.120Z,44.08
2023-03-11T09:23:27.966Z,44.23
2023-03-11T09:25:54.849Z,44.21
2023-03-11T09:28:21.610Z,44.24
2023-03-11T09:30:48.454Z,44.01
2023-03-11T09:33:15.153Z,43.99
2023-03-11T09:35:42.015Z,44.14
2023-03-11T09:38:08.852Z,43.98
2023-03-11T09:40:50.767Z,43.87
2023-03-11T09:43:33.270Z,43.91
2023-03-11T09:46:14.365Z,43.71
2023-03-11T09:48:47.834Z,43.53
2023-03-11T09:51:28.839Z,43.54
2023-03-11T09:54:04.279Z,43.32
2023-03-11T09:56:35.002Z,43.43
2023-03-11T09:59:06.430Z,43.46
2023-03-11T10:01:45.239Z,43.56
2023-03-11T10:04:16.976Z,43.62
2023-03-11T10:06:45.986Z,42.91
2023-03-11T10:09:12.911Z,43.19
2023-03-11T10:11:48.516Z,42.62
2023-03-11T10:14:21.409Z,42.85
2023-03-11T10:17:01.579Z,42.85
2023-03-11T10:19:47.037Z,42.81
2023-03-11T10:22:38.224Z,42.58
2023-03-11T10:25:30.393Z,42.64
2023-03-11T10:28:11.830Z,42.42
2023-03-11T10:30:46.874Z,42.04
2023-03-11T10:33:25.492Z,41.48
2023-03-11T10:35:55.016Z,41.76
2023-03-11T10:38:26.372Z,41.96
2023-03-11T10:41:00.061Z,41.94
2023-03-11T10:43:38.984Z,41.90
2023-03-11T10:46:13.166Z,41.81
2023-03-11T10:48:39.949Z,41.69
2023-03-11T10:51:31.749Z,41.60
2023-03-11T10:54:00.562Z,41.81
2023-03-11T10:56:27.286Z,42.01
2023-03-11T10:58:54.920Z,42.04
2023-03-11T11:01:22.378Z,41.67
2023-03-11T11:03:51.625Z,41.76
2023-03-11T11:06:31.674Z,41.48
2023-03-11T11:09:19.404Z,41.01
2023-03-11T11:12:12.043Z,40.94
2023-03-11T11:14:50.098Z,40.95
2023-03-11T11:17:27.056Z,40.59
2023-03-11T11:19:56.835Z,40.88
2023-03-11T11:22:25.275Z,40.80
2023-03-11T11:24:55.251Z,40.28
2023-03-11T11:27:24.701Z,40.39
2023-03-11T11:30:09.509Z,39.83
2023-03-11T11:32:37.418Z,39.41
2023-03-11T11:35:08.383Z,39.67
2023-03-11T11:37:38.745Z,39.32
2023-03-11T11:40:14.593Z,38.87
2023-03-11T11:42:55.714Z,39.48
2023-03-11T11:45:32.727Z,39.39
2023-03-11T11:48:04.805Z,38.86
2023-03-11T11:50:37.676Z,39.04
2023-03-11T11:53:22.425Z,39.16
2023-03-11T11:55:52.598Z,39.27
2023-03-11T11:58:20.729Z,39.61
2023-03-11T12:01:13.648Z,39.71
2023-03-11T12:04:04.864Z,39.14
2023-03-11T12:06:49.740Z,39.15
2023-03-11T12:09:39.608Z,39.42
2023-03-11T12:12:29.818Z,38.65
2023-03-11T12:15:10.759Z,38.66
2023-03-11T12:17:41.970Z,38.96
2023-03-11T12:20:18.800Z,39.22
2023-03-11T12:23:10.232Z,38.92
2023-03-11T12:25:55.148Z,39.16
2023-03-11T12:29:01.161Z,39.11
2023-03-11T12:31:34.420Z,39.68
2023-03-11T12:34:04.403Z,39.62
2023-03-11T12:36:34.967Z,39.20
2023-03-11T12:39:06.112Z,39.36
2023-03-11T12:41:40.063Z,39.14
2023-03-11T12:44:24.699Z,39.16
2023-03-11T12:46:54.338Z,39.38
2023-03-11T12:49:26.699Z,39.41
2023-03-11T12:52:18.266Z,39.36
2023-03-11T12:55:10.348Z,39.28
2023-03-11T12:57:48.379Z,39.07
2023-03-11T13:00:51.072Z,39.01
2023-03-11T13:03:40.309Z,38.78
2023-03-11T13:06:20.005Z,38.77
2023-03-11T13:08:50.866Z,39.07
2023-03-11T13:11:32.999Z,39.02
2023-03-11T13:14:18.727Z,39.27
2023-03-11T13:16:46.790Z,39.00
2023-03-11T13:19:35.056Z,39.32
2023-03-11T13:22:04.723Z,39.03
2023-03-11T13:24:31.593Z,38.80
2023-03-11T13:27:07.068Z,38.43
2023-03-11T13:29:57.234Z,38.56
2023-03-11T13:32:45.789Z,38.52
2023-03-11T13:35:44.078Z,38.75
2023-03-11T13:38:45.583Z,38.94
2023-03-11T13:41:22.488Z,38.91
2023-03-11T13:43:51.349Z,39.02
2023-03-11T13:46:30.927Z,38.21
2023-03-11T13:49:07.543Z,38.26
2023-03-11T13:51:47.281Z,38.22
2023-03-11T13:54:20.456Z,37.94
2023-03-11T13:56:54.063Z,37.20
2023-03-11T13:59:28.883Z,37.59
2023-03-11T14:02:20.227Z,37.63
2023-03-11T14:05:21.497Z,37.24
2023-03-11T14:07:48.925Z,37.07
2023-03-11T14:10:29.677Z,35.91
2023-03-11T14:13:17.646Z,36.00
2023-03-11T14:16:03.415Z,36.48
2023-03-11T14:18:35.231Z,35.96
2023-03-11T14:21:04.824Z,35.18
2023-03-11T14:23:39.961Z,35.28
2023-03-11T14:26:12.835Z,35.48
2023-03-11T14:28:45.092Z,35.38
2023-03-11T14:31:38.042Z,35.82
2023-03-11T14:34:25.680Z,35.23
2023-03-11T14:36:58.767Z,35.96
2023-03-11T14:39:34.601Z,36.16
2023-03-11T14:42:22.556Z,36.33
2023-03-11T14:45:11.205Z,36.41
2023-03-11T14:47:40.602Z,36.75
2023-03-11T14:50:15.792Z,36.81
2023-03-11T14:52:45.856Z,36.34
2023-03-11T14:55:20.789Z,35.97
2023-03-11T14:58:05.586Z,36.15
2023-03-11T15:00:39.828Z,36.17
2023-03-11T15:03:19.093Z,36.53
2023-03-11T15:05:53.975Z,36.09
2023-03-11T15:08:23.779Z,36.09
2023-03-11T15:11:21.003Z,36.47
2023-03-11T15:13:52.757Z,36.00
2023-03-11T15:16:31.620Z,35.72
2023-03-11T15:19:23.830Z,35.81
2023-03-11T15:21:59.097Z,36.31
2023-03-11T15:24:29.009Z,36.35
2023-03-11T15:27:04.429Z,36.29
2023-03-11T15:29:33.454Z,36.38
2023-03-11T15:32:00.857Z,36.23
2023-03-11T15:34:33.824Z,36.50
2023-03-11T15:37:18.830Z,36.51
2023-03-11T15:39:47.569Z,36.91
2023-03-11T15:42:20.394Z,36.89
2023-03-11T15:45:04.852Z,36.46
2023-03-11T15:47:32.405Z,37.39
2023-03-11T15:50:03.544Z,37.10
2023-03-11T15:52:30.480Z,37.08
2023-03-11T15:54:58.992Z,37.44
2023-03-11T15:57:29.748Z,37.86
2023-03-11T16:00:00.026Z,37.96
2023-03-11T16:02:30.135Z,38.07
2023-03-11T16:04:58.466Z,38.29
2023-03-11T16:07:39.051Z,38.12
2023-03-11T16:10:08.436Z,38.15
2023-03-11T16:12:35.461Z,38.42
2023-03-11T16:15:03.193Z,38.65
2023-03-11T16:17:46.867Z,38.42
2023-03-11T16:20:16.292Z,38.29
2023-03-11T16:22:43.915Z,38.42
2023-03-11T16:25:52.989Z,38.92
2023-03-11T16:28:20.570Z,38.95
2023-03-11T16:30:50.286Z,39.01
2023-03-11T16:33:17.821Z,38.83
2023-03-11T16:35:44.891Z,38.85
2023-03-11T16:38:12.511Z,38.41
2023-03-11T16:40:40.285Z,38.15
2023-03-11T16:43:15.167Z,38.30
2023-03-11T16:45:42.647Z,38.35
2023-03-11T16:48:09.911Z,38.32
2023-03-11T16:50:37.892Z,38.00
2023-03-11T16:53:05.359Z,38.59
2023-03-11T16:55:32.722Z,38.30
2023-03-11T16:57:59.875Z,38.59
2023-03-11T17:00:27.023Z,38.56
2023-03-11T17:02:54.553Z,38.47
2023-03-11T17:05:22.403Z,38.93
2023-03-11T17:07:54.322Z,39.07
2023-03-11T17:10:24.239Z,38.44
2023-03-11T17:12:52.189Z,38.90
2023-03-11T17:15:19.440Z,39.07
2023-03-11T17:17:46.374Z,38.90
2023-03-11T17:20:13.982Z,39.40
2023-03-11T17:22:41.733Z,39.74
2023-03-11T17:25:09.488Z,39.69
2023-03-11T17:27:37.319Z,39.80
2023-03-11T17:30:08.147Z,39.91
2023-03-11T17:32:35.799Z,40.23
2023-03-11T17:35:03.580Z,40.36
2023-03-11T17:37:31.931Z,40.38
2023-03-11T17:40:00.204Z,40.42
2023-03-11T17:42:27.504Z,40.57
2023-03-11T17:44:58.772Z,40.81
2023-03-11T17:47:30.515Z,40.81
2023-03-11T17:49:58.041Z,41.10
2023-03-11T17:52:25.444Z,41.00
2023-03-11T17:54:54.237Z,40.93
2023-03-11T17:57:22.147Z,40.98
2023-03-11T17:59:53.128Z,41.24
2023-03-11T18:02:21.652Z,41.40
2023-03-11T18:04:54.230Z,41.58
2023-03-11T18:07:24.126Z,41.71
2023-03-11T18:09:55.945Z,41.88
2023-03-11T18:12:23.690Z,41.96
2023-03-11T18:14:51.190Z,42.09
2023-03-11T18:17:19.561Z,42.20
2023-03-11T18:19:46.859Z,42.32
2023-03-11T18:22:15.637Z,42.21
2023-03-11T18:24:43.053Z,42.60
2023-03-11T18:27:10.750Z,42.51
2023-03-11T18:29:38.483Z,42.68
2023-03-11T18:32:06.438Z,42.55
2023-03-11T18:34:34.025Z,42.69
2023-03-11T18:37:02.027Z,42.50
2023-03-11T18:39:29.836Z,42.84
2023-03-11T18:41:57.640Z,42.73
2023-03-11T18:44:25.359Z,43.00
2023-03-11T18:46:52.906Z,43.07
2023-03-11T18:49:20.633Z,43.02
2023-03-11T18:51:48.255Z,43.04
2023-03-11T18:54:17.373Z,43.14
2023-03-11T18:56:45.398Z,43.10
2023-03-11T18:59:14.990Z,43.22
2023-03-11T19:01:42.315Z,43.46
2023-03-11T19:04:10.756Z,43.30
2023-03-11T19:06:38.018Z,43.47
2023-03-11T19:09:07.162Z,43.28
2023-03-11T19:11:34.842Z,43.15
2023-03-11T19:14:02.673Z,43.43
2023-03-11T19:16:30.610Z,43.51
2023-03-11T19:18:59.697Z,43.61
2023-03-11T19:21:28.780Z,44.01
2023-03-11T19:23:57.953Z,43.89
2023-03-11T19:26:41.489Z,43.82
2023-03-11T19:29:11.544Z,43.89
2023-03-11T19:31:40.112Z,44.19
2023-03-11T19:34:07.789Z,44.03
2023-03-11T19:36:35.676Z,44.07
2023-03-11T19:39:03.616Z,43.83
2023-03-11T19:41:32.399Z,43.78
2023-03-11T19:44:00.178Z,43.83
2023-03-11T19:46:29.211Z,43.91
2023-03-11T19:48:57.216Z,43.83
2023-03-11T19:51:30.476Z,43.81
2023-03-11T19:54:00.645Z,43.80
2023-03-11T19:56:29.506Z,43.81
2023-03-11T19:58:58.377Z,43.92
2023-03-11T20:01:28.813Z,43.92
2023-03-11T20:03:56.629Z,43.81
2023-03-11T20:06:24.053Z,43.95
2023-03-11T20:08:51.834Z,43.99
2023-03-11T20:11:19.314Z,43.97
2023-03-11T20:13:46.611Z,44.21
2023-03-11T20:16:18.949Z,43.74
2023-03-11T20:18:50.312Z,44.12
2023-03-11T20:21:18.121Z,44.03
2023-03-11T20:23:50.499Z,44.04
2023-03-11T20:26:19.321Z,43.98
2023-03-11T20:28:48.433Z,44.12
2023-03-11T20:31:22.165Z,44.33
2023-03-11T20:33:50.969Z,44.26
2023-03-11T20:36:23.403Z,44.48
2023-03-11T20:38:54.502Z,44.44
2023-03-11T20:41:25.397Z,44.51
2023-03-11T20:43:54.706Z,44.57
2023-03-11T20:46:22.525Z,44.55
2023-03-11T20:48:50.229Z,44.73
2023-03-11T20:51:21.002Z,44.87
2023-03-11T20:53:49.389Z,44.75
2023-03-11T20:56:19.470Z,44.84
2023-03-11T20:58:49.211Z,44.86
2023-03-11T21:01:28.829Z,44.92
2023-03-11T21:03:59.228Z,44.82
2023-03-11T21:06:33.314Z,44.74
2023-03-11T21:09:05.270Z,44.75
2023-03-11T21:11:33.514Z,44.96
2023-03-11T21:14:00.933Z,45.12
2023-03-11T21:16:28.915Z,45.02
2023-03-11T21:18:56.404Z,44.92
2023-03-11T21:21:24.252Z,44.94
2023-03-11T21:23:52.352Z,44.98
2023-03-11T21:26:20.083Z,44.95
2023-03-11T21:28:47.344Z,45.07
2023-03-11T21:31:19.982Z,45.01
2023-03-11T21:33:47.619Z,44.98
2023-03-11T21:36:17.649Z,45.27
2023-03-11T21:38:46.497Z,45.26
2023-03-11T21:41:16.636Z,45.36
2023-03-11T21:43:45.220Z,45.53
2023-03-11T21:46:15.477Z,45.49
2023-03-11T21:48:42.798Z,45.44
2023-03-11T21:51:10.203Z,45.40
2023-03-11T21:53:37.262Z,45.59
2023-03-11T21:56:05.293Z,45.46
2023-03-11T21:58:33.387Z,45.33
2023-03-11T22:01:00.981Z,45.48
2023-03-11T22:03:28.422Z,45.57
2023-03-11T22:05:57.485Z,45.51
2023-03-11T22:08:25.105Z,45.67
2023-03-11T22:10:52.407Z,45.58
2023-03-11T22:13:19.784Z,45.73
2023-03-11T22:15:47.220Z,45.71
2023-03-11T22:18:14.081Z,45.42
2023-03-11T22:20:41.619Z,45.47
2023-03-11T22:23:08.784Z,45.41
2023-03-11T22:25:36.196Z,45.32
2023-03-11T22:28:03.075Z,45.33
2023-03-11T22:30:30.369Z,45.47
2023-03-11T22:32:57.166Z,45.59
2023-03-11T22:35:23.990Z,45.55
2023-03-11T22:37:50.817Z,45.61
2023-03-11T22:40:17.686Z,45.57
2023-03-11T22:42:44.563Z,45.67
2023-03-11T22:45:11.715Z,45.52
2023-03-11T22:47:38.562Z,45.67
2023-03-11T22:50:05.819Z,45.63
2023-03-11T22:52:32.622Z,45.71
2023-03-11T22:54:59.484Z,45.74
2023-03-11T22:57:26.339Z,45.76
2023-03-11T22:59:53.183Z,45.88
2023-03-11T23:02:20.024Z,46.19
2023-03-11T23:04:46.965Z,46.28
2023-03-11T23:07:13.836Z,46.42
2023-03-11T23:09:42.940Z,46.33
2023-03-11T23:12:09.779Z,46.31
2023-03-11T23:14:44.453Z,46.50
2023-03-11T23:17:12.490Z,46.59
2023-03-11T23:19:58.082Z,46.46
2023-03-11T23:22:24.973Z,46.48
2023-03-11T23:24:52.192Z,46.58
2023-03-11T23:27:19.537Z,46.15
2023-03-11T23:29:47.940Z,46.32
2023-03-11T23:32:14.759Z,46.81
2023-03-11T23:34:41.613Z,46.90
2023-03-11T23:37:08.606Z,46.81
2023-03-11T23:39:35.429Z,46.89
2023-03-11T23:42:11.776Z,46.95
2023-03-11T23:44:49.113Z,46.90
2023-03-11T23:47:15.885Z,46.91
2023-03-11T23:49:42.861Z,47.01
2023-03-11T23:52:09.792Z,47.09
2023-03-11T23:54:36.662Z,47.26
2023-03-11T23:57:04.000Z,47.33
2023-03-11T23:59:30.860Z,47.21
